默认 日期 大小 文件数 浏览量 最新下载 xml
billy磁力链接相关资源由用户搜索指令自动获取,结果来源于网络,本站不存储任何资料,亦不承担任何责任,请于24小时内删除,搜索到10326个磁力,显示前4000条数据,用时4ms。
    {"Rex Cameron fed some big cock from hunky Billy Santoro [email protected]": 248149411}
创建时间: 2019-03-23 17:41:52 大小:236.65 MB 文件数量:1 热度:8 最近下载:2024-09-25 09:33:02
    {"Scans": {"img527.jpg": 743462, "img528.jpg": 996805, "img529.jpg": 1201194, "img530.jpg": 1010697, "img531.jpg": 512345}, "Billy Bang - Bang On!.ape": 403610132, "Billy Bang - Bang On!.cue": 1343, "Billy Bang - Bang On!.log": 2796}
创建时间: 2019-03-23 21:59:19 大小:389.17 MB 文件数量:8 热度:4 最近下载:2022-04-09 07:13:35
    {"Torrent Downloads piratepublic.com.txt": 226, "Nikita Von James and Shay Fox Fuck Billy.mp4": 451874436}
创建时间: 2019-03-23 22:06:09 大小:430.94 MB 文件数量:2 热度:10 最近下载:2024-04-19 20:28:04
    {"King Billy Cokebottle Number .1. The Lighter Shade Of Dark S1.mp3": 50411372, "King Billy Cokebottle Number .1. The Lighter Shade Of Dark S2.mp3": 34832012}
创建时间: 2019-03-23 22:48:36 大小:81.29 MB 文件数量:2 热度:4 最近下载:2022-04-09 07:08:50
    {"Billy Joel - Live At Shea Stadium 1ч.avi": 1248868352, "Billy Joel - Live At Shea Stadium 2ч.avi": 1602826240}
创建时间: 2019-03-23 23:19:27 大小:2.66 GB 文件数量:2 热度:7 最近下载:2025-09-21 13:43:03
    ... Baby Grand.mp3": 7468296, "07 Billy Joel - Temptation.mp3": 7661757, " ... Woman.mp3": 7638793, "01 Billy Joel - Running on Ice.mp3 ... ": 6758223, "09 Billy Joel - Getting Closer.mp3": ... 10123104, "08 Billy Joel - Code of Silence.mp3 ...
创建时间: 2019-03-23 23:27:53 大小:74.49 MB 文件数量:11 热度:5 最近下载:2025-05-06 20:31:02
    {"Cover": {"IMG0309A.jpg": 308593, "IMG0310A.jpg": 287554, "IMG0312A.jpg": 563756}, "im01.JPG": 125556, "im02.JPG": 123549, "im03.JPG": 131247, "im04.JPG": 147247, "front.jpg": 27702, "1.Rebel Yell.flac": 38519188, "7.Crank Call.flac": 31165391, "4.Blue ...
创建时间: 2019-03-23 23:44:33 大小:282.24 MB 文件数量:17 热度:6 最近下载:2025-03-14 07:16:01
    {"TaeBo - Billy Blanks - Billys Boot Camp - Basic Training Bootcamp.rar": 1465697417}
创建时间: 2019-03-24 04:09:23 大小:1.37 GB 文件数量:1 热度:5 最近下载:2024-09-20 13:44:03
    ... patricia.mp3": 3779554, "6-billy-may-his-orchestra-temptation.mp3 ... ": 3627888, "8-billy-may-his-orchestra-odd-couple ... tonight.mp3": 7248456, "2-billy-may-his-orchestra-hernandos-hideway ... .mp3": 2134038, "9-billy-may-his-orchestra-theme-mission ...
创建时间: 2019-03-24 06:16:26 大小:39.42 MB 文件数量:9 热度:4 最近下载:2022-04-09 07:13:48
    {"09 Catch 22.mp3": 7383678, "04 In Your Eyes.mp3": 5479038, "07 One Good Woman.mp3": 5384997, "08 She's A Runner.mp3": 5887802, "Emotions In Motion.jpg": 32882, "03 Learn How To Live.mp3": 5946107, "05 Keep Me Satisfied.mp3": 5415717, "02 Emotions In ...
创建时间: 2019-03-24 10:16:21 大小:57.89 MB 文件数量:12 热度:3 最近下载:2022-04-09 07:09:06
    {"02 Catfish Billy 2.mp3": 8096938}
创建时间: 2019-03-24 12:28:25 大小:7.72 MB 文件数量:1 热度:8 最近下载:2024-09-18 04:10:01
    {"VIDEO_TS": {"info.txt": 1051, "VIDEO_TS.BUP": 8192, "VIDEO_TS.IFO": 8192, "VTS_01_0.BUP": 14336, "VTS_01_0.IFO": 14336, "VTS_01_1.VOB": 38662144, "VTS_02_0.BUP": 102400, "VTS_02_0.IFO": 102400, "VTS_02_1.VOB": 1073739776, "VTS_02_2.VOB": 1073739776, " ...
创建时间: 2019-03-24 15:54:01 大小:4 GB 文件数量:13 热度:10 最近下载:2025-02-23 01:32:03
    ... Flash.mp3": 5691210, "Dino, Desi & Billy - The Rebel Kind- The Best ... of Dino, Desi & Billy (1965-70) 1996 [mp3]_tracklist ...
创建时间: 2019-03-24 16:39:16 大小:124.36 MB 文件数量:26 热度:8 最近下载:2025-09-18 16:51:11
    {"front.jpg": 36854, "11. Cell Towers.mp3": 9360470, "07. Turning Point.mp3": 18311068, "01. In A Week Or Two.mp3": 8982222, "03. Dynamic Exhilarator.mp3": 11235025, "04. A Bloodless Casualty.mp3": 14079238, "13. Sweat On An E string.mp3": 5510030, " ...
创建时间: 2019-03-24 17:19:39 大小:128.4 MB 文件数量:14 热度:12 最近下载:2025-08-01 09:06:12
    {"Archie Sharp vs Imre Nagy.mp4": 175585679, "Daniel Dubois vs AJ Carter.mp4": 120119875, "Lucien Reid vs Jose Aguilar.mp4": 649729166, "Anthony Yarde vs Norbert Nemesapati.mp4": 383192612, "Billy Joe Saunders vs Willie Monroe Jr.mp4": 1012135925}
创建时间: 2019-03-24 18:30:58 大小:2.18 GB 文件数量:5 热度:7 最近下载:2024-12-24 02:09:02
    ... Hits.sfv": 2871, "04 Billy Idol - White Wedding.mp3": ... Hits Front.jpg": 720530, "Billy Idol - Greatest Hits Inlay.jpg ... Yell (Live).mp3": 10735366, "Billy Idol - Greatest Hits Inside.jpg ... System.mp3": 6941969, "Playlist Billy Idol - Greatest Hits.m3u": ...
创建时间: 2019-03-24 19:03:26 大小:112.41 MB 文件数量:21 热度:6 最近下载:2022-04-09 06:14:08
    ... One Came.cue": 1439, "Sweet Billy Pilgrim - We Just Did What ... One Came.log": 3831, "Sweet Billy Pilgrim - We Just Did What ...
创建时间: 2019-03-24 23:33:22 大小:224.58 MB 文件数量:15 热度:8 最近下载:2024-10-27 09:30:01
    {"宣傳文件": {"AVDVD 成人光碟.url": 221, "dioguitar23@AV 天空.url": 267, "❤dioguitar23❤18p2p.url": 214, "dioguitar23@ HD1080.org.url": 229, "[email protected]": 1794, "_1024核工厂最新地址.mht": 32086, "dioguitar23_WK綜合論壇.url": 208, "dioguitar23@SexInSex! Board. ...
创建时间: 2019-03-25 00:25:19 大小:2.88 GB 文件数量:60 热度:11 最近下载:2025-05-26 14:38:02
    ... .jpg": 491711, "foo_dr.txt": 1478, "Billy Idol - Kings & Queens Of The ... Underground.cue": 1472, "Billy Idol - Kings & Queens Of The ... Underground.log": 5850, "Billy Idol - Kings & Queens Of The ...
创建时间: 2019-03-25 01:11:24 大小:477.79 MB 文件数量:21 热度:9 最近下载:2025-09-20 02:26:03
    ... zip": 14577860, "Billy Bat c095.zip": 9843392, "Billy Bat c096.zip ... ": 9527788, "Billy Bat c100.zip": 12222631, "Billy Bat c101.zip ... ": 9063390, "Billy Bat c102.zip ... ": 13679300, "Billy Bat c103.zip ...
创建时间: 2019-03-25 08:10:31 大小:1.06 GB 文件数量:34 热度:7 最近下载:2024-12-27 09:43:03